sensor_id;sensor_type;location;lat;lon;timestamp;pressure;altitude;pressure_sealevel;temperature;humidity
46199;BME280;31928;52.104;10.030;2023-06-22T03:38:32;100839.19;;;25.01;47.55
46199;BME280;31928;52.104;10.030;2023-06-22T03:40:59;100838.22;;;24.92;48.43
46199;BME280;31928;52.104;10.030;2023-06-22T03:43:25;100832.19;;;24.90;48.06
46199;BME280;31928;52.104;10.030;2023-06-22T03:45:52;100829.75;;;24.88;48.60
46199;BME280;31928;52.104;10.030;2023-06-22T03:48:19;100833.28;;;24.89;48.27
46199;BME280;31928;52.104;10.030;2023-06-22T03:50:45;100832.19;;;24.90;48.28
46199;BME280;31928;52.104;10.030;2023-06-22T03:53:12;100827.53;;;24.90;48.17
46199;BME280;31928;52.104;10.030;2023-06-22T03:55:48;100832.06;;;25.00;48.12
46199;BME280;31928;52.104;10.030;2023-06-22T03:58:16;100822.78;;;24.96;48.72
46199;BME280;31928;52.104;10.030;2023-06-22T04:00:50;100826.25;;;25.01;48.28
46199;BME280;31928;52.104;10.030;2023-06-22T04:03:18;100820.84;;;24.96;48.89
46199;BME280;31928;52.104;10.030;2023-06-22T04:05:46;100824.91;;;24.99;48.66
46199;BME280;31928;52.104;10.030;2023-06-22T04:08:13;100827.38;;;25.00;49.52
46199;BME280;31928;52.104;10.030;2023-06-22T04:10:40;100825.47;;;25.01;49.43
46199;BME280;31928;52.104;10.030;2023-06-22T04:13:07;100835.28;;;25.02;49.03
46199;BME280;31928;52.104;10.030;2023-06-22T04:15:34;100838.56;;;25.04;48.96
46199;BME280;31928;52.104;10.030;2023-06-22T04:18:00;100833.09;;;25.04;49.13
46199;BME280;31928;52.104;10.030;2023-06-22T04:20:27;100834.75;;;25.05;48.95
46199;BME280;31928;52.104;10.030;2023-06-22T04:22:55;100834.75;;;25.05;49.29
46199;BME280;31928;52.104;10.030;2023-06-22T04:25:22;100833.94;;;25.04;49.52
46199;BME280;31928;52.104;10.030;2023-06-22T04:27:49;100826.22;;;25.06;49.60
46199;BME280;31928;52.104;10.030;2023-06-22T04:30:16;100836.91;;;25.08;49.77
46199;BME280;31928;52.104;10.030;2023-06-22T04:32:44;100833.06;;;25.09;50.18
46199;BME280;31928;52.104;10.030;2023-06-22T04:35:11;100824.00;;;25.08;49.60
46199;BME280;31928;52.104;10.030;2023-06-22T04:37:38;100824.22;;;25.12;49.63
46199;BME280;31928;52.104;10.030;2023-06-22T04:40:06;100824.22;;;25.12;49.33
46199;BME280;31928;52.104;10.030;2023-06-22T04:42:34;100818.16;;;25.15;49.62
46199;BME280;31928;52.104;10.030;2023-06-22T04:45:02;100815.91;;;25.17;49.80
46199;BME280;31928;52.104;10.030;2023-06-22T04:47:28;100827.69;;;25.17;49.54
46199;BME280;31928;52.104;10.030;2023-06-22T04:49:55;100823.84;;;25.18;50.07
46199;BME280;31928;52.104;10.030;2023-06-22T04:52:22;100817.47;;;25.23;49.84
46199;BME280;31928;52.104;10.030;2023-06-22T04:54:48;100817.47;;;25.23;49.87
46199;BME280;31928;52.104;10.030;2023-06-22T04:57:16;100820.41;;;25.26;50.22
46199;BME280;31928;52.104;10.030;2023-06-22T04:59:43;100817.91;;;25.30;50.10
46199;BME280;31928;52.104;10.030;2023-06-22T05:02:10;100817.28;;;25.33;49.83
46199;BME280;31928;52.104;10.030;2023-06-22T05:04:37;100820.88;;;25.33;50.11
46199;BME280;31928;52.104;10.030;2023-06-22T05:07:07;100817.03;;;25.34;49.91
46199;BME280;31928;52.104;10.030;2023-06-22T05:09:34;100823.31;;;25.35;50.08
46199;BME280;31928;52.104;10.030;2023-06-22T05:12:02;100814.56;;;25.33;50.02
46199;BME280;31928;52.104;10.030;2023-06-22T05:14:29;100819.25;;;25.32;50.00
46199;BME280;31928;52.104;10.030;2023-06-22T05:16:56;100812.94;;;25.32;50.28
46199;BME280;31928;52.104;10.030;2023-06-22T05:19:30;100816.50;;;25.32;50.27
46199;BME280;31928;52.104;10.030;2023-06-22T05:22:01;100811.31;;;25.31;49.82
46199;BME280;31928;52.104;10.030;2023-06-22T05:24:27;100801.97;;;25.32;50.29
46199;BME280;31928;52.104;10.030;2023-06-22T05:26:54;100796.47;;;25.32;49.77
46199;BME280;31928;52.104;10.030;2023-06-22T05:29:21;100805.22;;;25.34;50.05
46199;BME280;31928;52.104;10.030;2023-06-22T05:31:49;100806.03;;;25.34;50.50
46199;BME280;31928;52.104;10.030;2023-06-22T05:34:16;100803.00;;;25.36;50.63
46199;BME280;31928;52.104;10.030;2023-06-22T05:36:42;100799.13;;;25.37;50.63
46199;BME280;31928;52.104;10.030;2023-06-22T05:39:14;100803.41;;;25.42;50.54
46199;BME280;31928;52.104;10.030;2023-06-22T05:41:41;100808.72;;;25.39;50.75
46199;BME280;31928;52.104;10.030;2023-06-22T05:44:09;100811.97;;;25.41;51.00
46199;BME280;31928;52.104;10.030;2023-06-22T05:46:36;100807.28;;;25.42;51.11
46199;BME280;31928;52.104;10.030;2023-06-22T05:49:03;100808.09;;;25.42;50.60
46199;BME280;31928;52.104;10.030;2023-06-22T05:51:29;100799.88;;;25.42;50.74
46199;BME280;31928;52.104;10.030;2023-06-22T05:53:56;100808.09;;;25.42;50.44
46199;BME280;31928;52.104;10.030;2023-06-22T05:56:23;100814.94;;;25.44;50.80
46199;BME280;31928;52.104;10.030;2023-06-22T05:58:49;100805.06;;;25.43;50.65
46199;BME280;31928;52.104;10.030;2023-06-22T06:01:16;100807.00;;;25.43;50.82
46199;BME280;31928;52.104;10.030;2023-06-22T06:03:43;100803.94;;;25.44;50.79
46199;BME280;31928;52.104;10.030;2023-06-22T06:06:10;100799.56;;;25.43;51.10
46199;BME280;31928;52.104;10.030;2023-06-22T06:08:38;100805.06;;;25.43;50.96
46199;BME280;31928;52.104;10.030;2023-06-22T06:11:05;100796.50;;;25.45;51.15
46199;BME280;31928;52.104;10.030;2023-06-22T06:13:32;100803.63;;;25.46;50.88
46199;BME280;31928;52.104;10.030;2023-06-22T06:15:58;100799.78;;;25.47;51.14
46199;BME280;31928;52.104;10.030;2023-06-22T06:18:25;100802.22;;;25.48;51.62
46199;BME280;31928;52.104;10.030;2023-06-22T06:20:52;100806.88;;;25.48;51.22
46199;BME280;31928;52.104;10.030;2023-06-22T06:23:19;100795.91;;;25.48;51.83
46199;BME280;31928;52.104;10.030;2023-06-22T06:25:46;100798.38;;;25.49;51.71
46199;BME280;31928;52.104;10.030;2023-06-22T06:28:12;100791.75;;;25.50;51.70
46199;BME280;31928;52.104;10.030;2023-06-22T06:30:39;100800.22;;;25.54;53.34
46199;BME280;31928;52.104;10.030;2023-06-22T06:33:07;100791.66;;;25.55;52.10
46199;BME280;31928;52.104;10.030;2023-06-22T06:35:35;100794.94;;;25.57;52.58
46199;BME280;31928;52.104;10.030;2023-06-22T06:38:02;100803.66;;;25.59;52.92
46199;BME280;31928;52.104;10.030;2023-06-22T06:40:29;100807.56;;;25.58;52.17
46199;BME280;31928;52.104;10.030;2023-06-22T06:42:56;100809.16;;;25.59;52.14
46199;BME280;31928;52.104;10.030;2023-06-22T06:45:23;100803.66;;;25.59;52.27
46199;BME280;31928;52.104;10.030;2023-06-22T06:47:51;100803.41;;;25.61;52.21
46199;BME280;31928;52.104;10.030;2023-06-22T06:50:19;100795.97;;;25.61;52.14
46199;BME280;31928;52.104;10.030;2023-06-22T06:52:46;100805.53;;;25.64;52.32
46199;BME280;31928;52.104;10.030;2023-06-22T06:55:12;100810.72;;;25.65;52.07
46199;BME280;31928;52.104;10.030;2023-06-22T06:57:41;100800.25;;;25.67;52.24
46199;BME280;31928;52.104;10.030;2023-06-22T07:00:10;100809.84;;;25.70;51.99
46199;BME280;31928;52.104;10.030;2023-06-22T07:02:39;100796.94;;;25.70;52.38
46199;BME280;31928;52.104;10.030;2023-06-22T07:05:07;100792.25;;;25.71;52.07
46199;BME280;31928;52.104;10.030;2023-06-22T07:07:34;100787.28;;;25.73;52.03
46199;BME280;31928;52.104;10.030;2023-06-22T07:10:05;100786.34;;;25.77;52.18
46199;BME280;31928;52.104;10.030;2023-06-22T07:12:32;100784.94;;;25.80;52.11
46199;BME280;31928;52.104;10.030;2023-06-22T07:15:07;100787.50;;;25.90;51.60
46199;BME280;31928;52.104;10.030;2023-06-22T07:17:38;100793.63;;;25.87;51.97
46199;BME280;31928;52.104;10.030;2023-06-22T07:20:09;100787.19;;;25.91;51.74
46199;BME280;31928;52.104;10.030;2023-06-22T07:22:41;100794.03;;;25.94;51.86
46199;BME280;31928;52.104;10.030;2023-06-22T07:25:09;100787.13;;;25.96;51.75
46199;BME280;31928;52.104;10.030;2023-06-22T07:27:37;100793.63;;;26.00;51.51
46199;BME280;31928;52.104;10.030;2023-06-22T07:30:04;100782.84;;;26.04;51.47
46199;BME280;31928;52.104;10.030;2023-06-22T07:32:31;100795.66;;;26.08;51.64
46199;BME280;31928;52.104;10.030;2023-06-22T07:34:58;100795.09;;;26.11;50.90
46199;BME280;31928;52.104;10.030;2023-06-22T07:37:25;100793.66;;;26.13;51.00
46199;BME280;31928;52.104;10.030;2023-06-22T07:39:55;100787.53;;;26.16;50.84
46199;BME280;31928;52.104;10.030;2023-06-22T07:42:25;100792.72;;;26.18;50.71
46199;BME280;31928;52.104;10.030;2023-06-22T07:44:53;100794.88;;;26.21;51.00
46199;BME280;31928;52.104;10.030;2023-06-22T07:47:20;100789.56;;;26.24;50.74
46199;BME280;31928;52.104;10.030;2023-06-22T07:49:46;100788.97;;;26.27;50.97
46199;BME280;31928;52.104;10.030;2023-06-22T07:52:13;100787.53;;;26.30;50.70
46199;BME280;31928;52.104;10.030;2023-06-22T07:54:40;100788.59;;;26.34;50.68
46199;BME280;31928;52.104;10.030;2023-06-22T07:57:06;100782.50;;;26.37;50.58
46199;BME280;31928;52.104;10.030;2023-06-22T07:59:33;100786.56;;;26.39;50.48
46199;BME280;31928;52.104;10.030;2023-06-22T08:02:00;100786.75;;;26.43;50.08
46199;BME280;31928;52.104;10.030;2023-06-22T08:04:29;100788.91;;;26.46;49.91
46199;BME280;31928;52.104;10.030;2023-06-22T08:06:57;100778.41;;;26.48;49.87
46199;BME280;31928;52.104;10.030;2023-06-22T08:09:24;100775.06;;;26.51;49.88
46199;BME280;31928;52.104;10.030;2023-06-22T08:11:51;100777.19;;;26.54;49.79
46199;BME280;31928;52.104;10.030;2023-06-22T08:14:17;100776.56;;;26.57;49.91
46199;BME280;31928;52.104;10.030;2023-06-22T08:16:44;100773.19;;;26.60;49.61
46199;BME280;31928;52.104;10.030;2023-06-22T08:19:10;100784.69;;;26.62;49.67
46199;BME280;31928;52.104;10.030;2023-06-22T08:21:37;100770.31;;;26.65;49.99
46199;BME280;31928;52.104;10.030;2023-06-22T08:24:04;100780.72;;;26.67;49.73
46199;BME280;31928;52.104;10.030;2023-06-22T08:26:31;100784.50;;;26.71;50.15
46199;BME280;31928;52.104;10.030;2023-06-22T08:29:03;100791.00;;;26.75;49.73
46199;BME280;31928;52.104;10.030;2023-06-22T08:31:30;100792.00;;;26.79;49.88
46199;BME280;31928;52.104;10.030;2023-06-22T08:33:57;100784.44;;;26.85;49.17
46199;BME280;31928;52.104;10.030;2023-06-22T08:36:24;100796.47;;;26.89;49.25
46199;BME280;31928;52.104;10.030;2023-06-22T08:38:51;100791.16;;;26.92;48.88
46199;BME280;31928;52.104;10.030;2023-06-22T08:41:18;100791.88;;;26.98;49.93
46199;BME280;31928;52.104;10.030;2023-06-22T08:43:44;100789.34;;;27.01;49.22
46199;BME280;31928;52.104;10.030;2023-06-22T08:46:11;100790.34;;;27.05;49.50
46199;BME280;31928;52.104;10.030;2023-06-22T08:48:38;100790.22;;;27.10;49.14
46199;BME280;31928;52.104;10.030;2023-06-22T08:51:04;100786.53;;;27.15;48.68
46199;BME280;31928;52.104;10.030;2023-06-22T08:53:31;100780.09;;;27.19;49.16
46199;BME280;31928;52.104;10.030;2023-06-22T08:55:57;100781.09;;;27.23;48.74
46199;BME280;31928;52.104;10.030;2023-06-22T08:58:24;100768.34;;;27.27;48.58
46199;BME280;31928;52.104;10.030;2023-06-22T09:00:51;100769.00;;;27.32;48.31
46199;BME280;31928;52.104;10.030;2023-06-22T09:03:18;100766.47;;;27.36;48.19
46199;BME280;31928;52.104;10.030;2023-06-22T09:05:47;100760.81;;;27.41;48.04
46199;BME280;31928;52.104;10.030;2023-06-22T09:08:14;100750.81;;;27.45;48.36
46199;BME280;31928;52.104;10.030;2023-06-22T09:10:40;100749.56;;;27.51;47.93
46199;BME280;31928;52.104;10.030;2023-06-22T09:13:07;100735.66;;;27.56;48.71
46199;BME280;31928;52.104;10.030;2023-06-22T09:15:34;100726.97;;;27.62;49.22
46199;BME280;31928;52.104;10.030;2023-06-22T09:18:01;100724.56;;;27.69;49.11
46199;BME280;31928;52.104;10.030;2023-06-22T09:20:28;100721.34;;;27.76;48.75
46199;BME280;31928;52.104;10.030;2023-06-22T09:22:55;100723.84;;;27.86;48.07
46199;BME280;31928;52.104;10.030;2023-06-22T09:25:21;100734.41;;;27.92;47.01
46199;BME280;31928;52.104;10.030;2023-06-22T09:27:48;100736.38;;;28.00;48.31
46199;BME280;31928;52.104;10.030;2023-06-22T09:30:15;100736.72;;;28.07;47.27
46199;BME280;31928;52.104;10.030;2023-06-22T09:32:42;100732.09;;;28.16;47.37
46199;BME280;31928;52.104;10.030;2023-06-22T09:35:10;100733.75;;;28.25;46.21
46199;BME280;31928;52.104;10.030;2023-06-22T09:37:42;100731.34;;;28.32;46.43
46199;BME280;31928;52.104;10.030;2023-06-22T09:40:09;100732.81;;;28.38;47.03
46199;BME280;31928;52.104;10.030;2023-06-22T09:42:38;100724.88;;;28.45;47.20
46199;BME280;31928;52.104;10.030;2023-06-22T09:45:05;100714.19;;;28.52;46.43
46199;BME280;31928;52.104;10.030;2023-06-22T09:47:32;100718.91;;;28.60;46.76
46199;BME280;31928;52.104;10.030;2023-06-22T09:49:59;100713.69;;;28.67;45.31
46199;BME280;31928;52.104;10.030;2023-06-22T09:52:26;100706.94;;;28.73;45.59
46199;BME280;31928;52.104;10.030;2023-06-22T09:55:12;100713.59;;;28.80;46.52
46199;BME280;31928;52.104;10.030;2023-06-22T09:57:38;100711.47;;;28.86;45.93
46199;BME280;31928;52.104;10.030;2023-06-22T10:00:06;100711.31;;;28.91;46.65
46199;BME280;31928;52.104;10.030;2023-06-22T10:02:35;100714.56;;;29.01;47.06
46199;BME280;31928;52.104;10.030;2023-06-22T10:05:02;100715.50;;;29.13;46.85
46199;BME280;31928;52.104;10.030;2023-06-22T10:07:30;100715.81;;;29.29;45.84
46199;BME280;31928;52.104;10.030;2023-06-22T10:09:56;100723.63;;;29.44;45.71
46199;BME280;31928;52.104;10.030;2023-06-22T10:12:23;100718.06;;;29.61;46.36
46199;BME280;31928;52.104;10.030;2023-06-22T10:14:50;100712.81;;;29.76;44.78
46199;BME280;31928;52.104;10.030;2023-06-22T10:17:17;100704.00;;;29.91;44.44
46199;BME280;31928;52.104;10.030;2023-06-22T10:19:43;100716.81;;;30.04;43.65
46199;BME280;31928;52.104;10.030;2023-06-22T10:22:10;100706.97;;;30.15;43.46
46199;BME280;31928;52.104;10.030;2023-06-22T10:24:37;100701.06;;;30.25;43.34
46199;BME280;31928;52.104;10.030;2023-06-22T10:27:05;100706.22;;;30.35;44.38
46199;BME280;31928;52.104;10.030;2023-06-22T10:29:31;100700.78;;;30.46;43.67
46199;BME280;31928;52.104;10.030;2023-06-22T10:31:58;100695.31;;;30.58;44.00
46199;BME280;31928;52.104;10.030;2023-06-22T10:34:25;100697.50;;;30.73;43.56
46199;BME280;31928;52.104;10.030;2023-06-22T10:36:51;100686.28;;;30.90;43.69
46199;BME280;31928;52.104;10.030;2023-06-22T10:39:18;100680.63;;;31.07;42.65
46199;BME280;31928;52.104;10.030;2023-06-22T10:41:45;100685.88;;;31.20;42.59
46199;BME280;31928;52.104;10.030;2023-06-22T10:44:12;100681.63;;;31.35;42.17
46199;BME280;31928;52.104;10.030;2023-06-22T10:46:38;100679.41;;;31.49;42.73
46199;BME280;31928;52.104;10.030;2023-06-22T10:49:05;100672.16;;;31.68;42.04
46199;BME280;31928;52.104;10.030;2023-06-22T10:51:32;100673.91;;;31.84;41.85
46199;BME280;31928;52.104;10.030;2023-06-22T10:53:59;100664.25;;;32.02;42.16
46199;BME280;31928;52.104;10.030;2023-06-22T10:56:25;100659.25;;;32.20;40.42
46199;BME280;31928;52.104;10.030;2023-06-22T10:58:52;100647.44;;;32.34;40.75
46199;BME280;31928;52.104;10.030;2023-06-22T11:01:20;100655.38;;;32.48;41.30
46199;BME280;31928;52.104;10.030;2023-06-22T11:04:01;100650.41;;;32.65;40.85
46199;BME280;31928;52.104;10.030;2023-06-22T11:06:28;100661.09;;;32.79;40.55
46199;BME280;31928;52.104;10.030;2023-06-22T11:08:55;100661.53;;;32.92;39.46
46199;BME280;31928;52.104;10.030;2023-06-22T11:11:32;100650.84;;;33.06;39.66
46199;BME280;31928;52.104;10.030;2023-06-22T11:13:58;100640.94;;;33.21;39.81
46199;BME280;31928;52.104;10.030;2023-06-22T11:16:25;100639.78;;;33.37;39.79
46199;BME280;31928;52.104;10.030;2023-06-22T11:18:52;100629.06;;;33.51;39.44
46199;BME280;31928;52.104;10.030;2023-06-22T11:21:18;100626.28;;;33.66;38.30
46199;BME280;31928;52.104;10.030;2023-06-22T11:23:45;100620.25;;;33.80;38.44
46199;BME280;31928;52.104;10.030;2023-06-22T11:26:12;100605.06;;;33.93;37.80
46199;BME280;31928;52.104;10.030;2023-06-22T11:28:39;100601.78;;;34.03;37.59
46199;BME280;31928;52.104;10.030;2023-06-22T11:31:05;100590.78;;;34.10;37.01
46199;BME280;31928;52.104;10.030;2023-06-22T11:33:50;100591.25;;;34.12;36.77
46199;BME280;31928;52.104;10.030;2023-06-22T11:36:18;100604.72;;;34.10;36.95
46199;BME280;31928;52.104;10.030;2023-06-22T11:38:45;100593.56;;;34.10;36.79
46199;BME280;31928;52.104;10.030;2023-06-22T11:41:12;100586.84;;;34.11;37.47
46199;BME280;31928;52.104;10.030;2023-06-22T11:43:38;100576.59;;;34.14;37.01
46199;BME280;31928;52.104;10.030;2023-06-22T11:46:05;100575.06;;;34.17;37.29
46199;BME280;31928;52.104;10.030;2023-06-22T11:48:32;100565.59;;;34.21;37.04
46199;BME280;31928;52.104;10.030;2023-06-22T11:50:59;100568.84;;;34.23;36.81
46199;BME280;31928;52.104;10.030;2023-06-22T11:53:26;100556.94;;;34.26;37.51
46199;BME280;31928;52.104;10.030;2023-06-22T11:55:53;100556.25;;;34.29;36.94
46199;BME280;31928;52.104;10.030;2023-06-22T11:58:22;100551.97;;;34.35;37.69
46199;BME280;31928;52.104;10.030;2023-06-22T12:00:49;100544.22;;;34.44;36.60
46199;BME280;31928;52.104;10.030;2023-06-22T12:03:18;100546.44;;;34.54;37.49
46199;BME280;31928;52.104;10.030;2023-06-22T12:05:46;100537.13;;;34.66;37.20
46199;BME280;31928;52.104;10.030;2023-06-22T12:08:13;100534.19;;;34.77;36.81
46199;BME280;31928;52.104;10.030;2023-06-22T12:10:40;100522.06;;;34.89;36.98
46199;BME280;31928;52.104;10.030;2023-06-22T12:13:07;100519.56;;;35.03;36.95
46199;BME280;31928;52.104;10.030;2023-06-22T12:15:34;100526.94;;;35.14;35.94
46199;BME280;31928;52.104;10.030;2023-06-22T12:18:00;100528.28;;;35.24;36.25
46199;BME280;31928;52.104;10.030;2023-06-22T12:20:28;100520.78;;;35.28;35.45
46199;BME280;31928;52.104;10.030;2023-06-22T12:22:55;100515.66;;;35.30;36.16
46199;BME280;31928;52.104;10.030;2023-06-22T12:25:24;100502.88;;;35.29;34.21
46199;BME280;31928;52.104;10.030;2023-06-22T12:27:51;100492.88;;;35.24;33.62
46199;BME280;31928;52.104;10.030;2023-06-22T12:30:18;100495.13;;;35.19;34.40
46199;BME280;31928;52.104;10.030;2023-06-22T12:32:45;100488.63;;;35.11;34.34
46199;BME280;31928;52.104;10.030;2023-06-22T12:35:12;100490.56;;;35.07;34.26
46199;BME280;31928;52.104;10.030;2023-06-22T12:37:43;100479.41;;;35.07;34.20
46199;BME280;31928;52.104;10.030;2023-06-22T12:40:10;100480.53;;;35.03;34.30
46199;BME280;31928;52.104;10.030;2023-06-22T12:42:37;100477.75;;;35.03;34.95
46199;BME280;31928;52.104;10.030;2023-06-22T12:45:05;100474.19;;;35.06;34.21
46199;BME280;31928;52.104;10.030;2023-06-22T12:47:31;100471.84;;;35.08;34.94
46199;BME280;31928;52.104;10.030;2023-06-22T12:49:58;100459.94;;;35.11;34.14
46199;BME280;31928;52.104;10.030;2023-06-22T12:52:25;100466.38;;;35.15;34.13
46199;BME280;31928;52.104;10.030;2023-06-22T12:54:52;100464.09;;;35.20;34.09
46199;BME280;31928;52.104;10.030;2023-06-22T12:57:21;100464.16;;;35.24;34.16
46199;BME280;31928;52.104;10.030;2023-06-22T12:59:48;100460.59;;;35.27;33.99
46199;BME280;31928;52.104;10.030;2023-06-22T13:02:15;100471.44;;;35.32;34.55
46199;BME280;31928;52.104;10.030;2023-06-22T13:04:41;100472.31;;;35.36;34.39
46199;BME280;31928;52.104;10.030;2023-06-22T13:07:10;100461.13;;;35.36;34.51
46199;BME280;31928;52.104;10.030;2023-06-22T13:09:48;100463.94;;;35.36;33.47
46199;BME280;31928;52.104;10.030;2023-06-22T13:12:21;100458.69;;;35.31;33.08
46199;BME280;31928;52.104;10.030;2023-06-22T13:14:48;100457.78;;;35.23;33.54
46199;BME280;31928;52.104;10.030;2023-06-22T13:17:15;100448.88;;;35.14;33.54
46199;BME280;31928;52.104;10.030;2023-06-22T13:19:42;100448.69;;;35.04;34.30
46199;BME280;31928;52.104;10.030;2023-06-22T13:22:32;100459.94;;;35.11;35.04
46199;BME280;31928;52.104;10.030;2023-06-22T13:25:00;100455.03;;;34.82;34.46
46199;BME280;31928;52.104;10.030;2023-06-22T13:27:26;100454.41;;;34.70;34.83
46199;BME280;31928;52.104;10.030;2023-06-22T13:29:53;100450.97;;;34.57;34.75
46199;BME280;31928;52.104;10.030;2023-06-22T13:32:20;100447.63;;;34.48;35.64
46199;BME280;31928;52.104;10.030;2023-06-22T13:34:47;100433.47;;;34.38;35.60
46199;BME280;31928;52.104;10.030;2023-06-22T13:37:13;100418.19;;;34.28;35.36
46199;BME280;31928;52.104;10.030;2023-06-22T13:39:41;100408.09;;;34.20;35.79
46199;BME280;31928;52.104;10.030;2023-06-22T13:42:08;100404.72;;;34.12;36.62
46199;BME280;31928;52.104;10.030;2023-06-22T13:44:34;100415.69;;;34.05;36.79
46199;BME280;31928;52.104;10.030;2023-06-22T13:47:01;100414.75;;;33.97;37.23
46199;BME280;31928;52.104;10.030;2023-06-22T13:49:28;100404.22;;;33.91;37.40
46199;BME280;31928;52.104;10.030;2023-06-22T13:51:55;100404.09;;;33.84;37.79
46199;BME280;31928;52.104;10.030;2023-06-22T13:54:21;100423.84;;;33.79;37.82
46199;BME280;31928;52.104;10.030;2023-06-22T13:56:51;100426.13;;;33.73;37.62
46199;BME280;31928;52.104;10.030;2023-06-22T13:59:18;100433.97;;;33.68;37.98
46199;BME280;31928;52.104;10.030;2023-06-22T14:01:46;100407.59;;;33.62;37.96
46199;BME280;31928;52.104;10.030;2023-06-22T14:04:13;100380.06;;;33.57;38.47
46199;BME280;31928;52.104;10.030;2023-06-22T14:06:40;100367.63;;;33.51;37.99
46199;BME280;31928;52.104;10.030;2023-06-22T14:09:06;100362.31;;;33.46;38.36
46199;BME280;31928;52.104;10.030;2023-06-22T14:11:33;100344.31;;;33.40;39.19
46199;BME280;31928;52.104;10.030;2023-06-22T14:14:00;100344.22;;;33.37;39.22
46199;BME280;31928;52.104;10.030;2023-06-22T14:16:26;100334.63;;;33.34;38.73
46199;BME280;31928;52.104;10.030;2023-06-22T14:18:53;100332.22;;;33.33;39.42
46199;BME280;31928;52.104;10.030;2023-06-22T14:21:23;100329.38;;;33.29;38.97
46199;BME280;31928;52.104;10.030;2023-06-22T14:23:50;100316.19;;;33.26;38.96
46199;BME280;31928;52.104;10.030;2023-06-22T14:26:16;100307.03;;;33.26;39.74
46199;BME280;31928;52.104;10.030;2023-06-22T14:28:46;100274.47;;;33.26;38.71
46199;BME280;31928;52.104;10.030;2023-06-22T14:31:15;100245.50;;;33.27;39.19
46199;BME280;31928;52.104;10.030;2023-06-22T14:33:46;100226.56;;;33.33;38.45
46199;BME280;31928;52.104;10.030;2023-06-22T14:36:14;100234.41;;;33.27;38.35
46199;BME280;31928;52.104;10.030;2023-06-22T14:38:42;100237.97;;;33.28;37.82
46199;BME280;31928;52.104;10.030;2023-06-22T14:41:09;100252.63;;;33.25;38.33
46199;BME280;31928;52.104;10.030;2023-06-22T14:43:47;100281.66;;;33.27;38.55
46199;BME280;31928;52.104;10.030;2023-06-22T14:46:15;100288.25;;;33.19;38.92
46199;BME280;31928;52.104;10.030;2023-06-22T14:48:43;100282.59;;;33.16;39.17
46199;BME280;31928;52.104;10.030;2023-06-22T14:51:11;100273.00;;;33.13;39.07
46199;BME280;31928;52.104;10.030;2023-06-22T14:53:43;100263.41;;;33.11;38.70
46199;BME280;31928;52.104;10.030;2023-06-22T14:56:11;100249.00;;;33.05;38.73
46199;BME280;31928;52.104;10.030;2023-06-22T14:58:40;100257.59;;;33.00;38.79
46199;BME280;31928;52.104;10.030;2023-06-22T15:01:07;100256.72;;;32.96;38.86
46199;BME280;31928;52.104;10.030;2023-06-22T15:03:37;100254.69;;;32.93;39.14
46199;BME280;31928;52.104;10.030;2023-06-22T15:06:04;100247.00;;;32.87;39.43
46199;BME280;31928;52.104;10.030;2023-06-22T15:08:31;100247.28;;;32.82;39.34
46199;BME280;31928;52.104;10.030;2023-06-22T15:11:01;100249.22;;;32.82;39.52
46199;BME280;31928;52.104;10.030;2023-06-22T15:13:30;100262.50;;;32.73;39.34
46199;BME280;31928;52.104;10.030;2023-06-22T15:16:01;100269.88;;;32.65;39.12
46199;BME280;31928;52.104;10.030;2023-06-22T15:18:30;100265.31;;;32.57;39.21
46199;BME280;31928;52.104;10.030;2023-06-22T15:20:57;100257.28;;;32.52;38.69
46199;BME280;31928;52.104;10.030;2023-06-22T15:23:25;100246.78;;;32.46;38.81
46199;BME280;31928;52.104;10.030;2023-06-22T15:25:52;100241.03;;;32.39;38.84
46199;BME280;31928;52.104;10.030;2023-06-22T15:28:19;100223.38;;;32.31;39.04
46199;BME280;31928;52.104;10.030;2023-06-22T15:30:51;100224.22;;;32.32;39.37
46199;BME280;31928;52.104;10.030;2023-06-22T15:33:18;100221.53;;;32.20;39.40
46199;BME280;31928;52.104;10.030;2023-06-22T15:35:45;100215.81;;;32.13;39.88
46199;BME280;31928;52.104;10.030;2023-06-22T15:38:12;100228.31;;;32.07;40.31
46199;BME280;31928;52.104;10.030;2023-06-22T15:40:38;100263.06;;;32.01;40.10
46199;BME280;31928;52.104;10.030;2023-06-22T15:43:05;100276.28;;;31.92;40.95
46199;BME280;31928;52.104;10.030;2023-06-22T15:45:32;100287.50;;;31.84;41.29
46199;BME280;31928;52.104;10.030;2023-06-22T15:47:58;100299.84;;;31.71;41.72
46199;BME280;31928;52.104;10.030;2023-06-22T15:50:25;100330.28;;;31.56;43.01
46199;BME280;31928;52.104;10.030;2023-06-22T15:52:52;100351.34;;;31.33;44.42
46199;BME280;31928;52.104;10.030;2023-06-22T15:55:19;100317.66;;;31.07;45.01
46199;BME280;31928;52.104;10.030;2023-06-22T15:57:45;100311.81;;;30.73;44.65
46199;BME280;31928;52.104;10.030;2023-06-22T16:00:14;100356.69;;;30.34;45.18
46199;BME280;31928;52.104;10.030;2023-06-22T16:02:44;100353.47;;;29.88;46.41
46199;BME280;31928;52.104;10.030;2023-06-22T16:05:11;100344.72;;;29.45;46.81
46199;BME280;31928;52.104;10.030;2023-06-22T16:07:38;100378.28;;;29.07;47.16
46199;BME280;31928;52.104;10.030;2023-06-22T16:10:06;100388.97;;;28.71;47.70
46199;BME280;31928;52.104;10.030;2023-06-22T16:12:34;100377.28;;;28.37;47.52
46199;BME280;31928;52.104;10.030;2023-06-22T16:15:04;100372.25;;;28.13;47.33
46199;BME280;31928;52.104;10.030;2023-06-22T16:17:31;100387.88;;;27.76;48.75
46199;BME280;31928;52.104;10.030;2023-06-22T16:19:58;100377.81;;;27.46;49.21